sensor_id;sensor_type;location;lat;lon;timestamp;P1;durP1;ratioP1;P2;durP2;ratioP2
37141;SDS011;23041;49.816;20.092;2022-07-29T00:01:01;8.18;;;6.80;;
37141;SDS011;23041;49.816;20.092;2022-07-29T00:03:27;8.10;;;6.95;;
37141;SDS011;23041;49.816;20.092;2022-07-29T00:05:54;7.60;;;6.75;;
37141;SDS011;23041;49.816;20.092;2022-07-29T00:08:20;7.22;;;6.53;;
37141;SDS011;23041;49.816;20.092;2022-07-29T00:10:47;6.50;;;5.92;;
37141;SDS011;23041;49.816;20.092;2022-07-29T00:13:13;6.05;;;5.35;;
37141;SDS011;23041;49.816;20.092;2022-07-29T00:15:40;7.05;;;6.45;;
37141;SDS011;23041;49.816;20.092;2022-07-29T00:18:06;7.78;;;6.35;;
37141;SDS011;23041;49.816;20.092;2022-07-29T00:20:32;9.88;;;6.67;;
37141;SDS011;23041;49.816;20.092;2022-07-29T00:22:59;7.12;;;6.42;;
37141;SDS011;23041;49.816;20.092;2022-07-29T00:25:25;8.75;;;7.37;;
37141;SDS011;23041;49.816;20.092;2022-07-29T00:27:52;7.42;;;6.78;;
37141;SDS011;23041;49.816;20.092;2022-07-29T00:30:18;6.85;;;6.25;;
37141;SDS011;23041;49.816;20.092;2022-07-29T00:32:45;6.60;;;5.90;;
37141;SDS011;23041;49.816;20.092;2022-07-29T00:35:11;8.08;;;7.05;;
37141;SDS011;23041;49.816;20.092;2022-07-29T00:37:56;7.62;;;6.37;;
37141;SDS011;23041;49.816;20.092;2022-07-29T00:40:23;8.35;;;6.08;;
37141;SDS011;23041;49.816;20.092;2022-07-29T00:42:51;8.35;;;7.15;;
37141;SDS011;23041;49.816;20.092;2022-07-29T00:45:18;7.42;;;6.72;;
37141;SDS011;23041;49.816;20.092;2022-07-29T00:47:45;7.42;;;6.70;;
37141;SDS011;23041;49.816;20.092;2022-07-29T00:50:12;8.13;;;6.78;;
37141;SDS011;23041;49.816;20.092;2022-07-29T00:52:40;7.10;;;6.45;;
37141;SDS011;23041;49.816;20.092;2022-07-29T00:55:09;8.40;;;6.92;;
37141;SDS011;23041;49.816;20.092;2022-07-29T00:57:39;7.72;;;7.03;;
37141;SDS011;23041;49.816;20.092;2022-07-29T01:00:09;7.57;;;6.77;;
37141;SDS011;23041;49.816;20.092;2022-07-29T01:02:40;8.90;;;7.95;;
37141;SDS011;23041;49.816;20.092;2022-07-29T01:05:06;8.25;;;7.45;;
37141;SDS011;23041;49.816;20.092;2022-07-29T01:07:34;9.60;;;7.45;;
37141;SDS011;23041;49.816;20.092;2022-07-29T01:10:07;8.45;;;7.12;;
37141;SDS011;23041;49.816;20.092;2022-07-29T01:12:32;7.75;;;7.10;;
37141;SDS011;23041;49.816;20.092;2022-07-29T01:15:02;9.05;;;7.03;;
37141;SDS011;23041;49.816;20.092;2022-07-29T01:26:52;6.95;;;6.20;;
37141;SDS011;23041;49.816;20.092;2022-07-29T01:34:50;9.30;;;6.67;;
37141;SDS011;23041;49.816;20.092;2022-07-29T01:37:26;8.00;;;7.17;;
37141;SDS011;23041;49.816;20.092;2022-07-29T01:42:54;8.95;;;6.17;;
37141;SDS011;23041;49.816;20.092;2022-07-29T01:45:26;8.95;;;6.05;;
37141;SDS011;23041;49.816;20.092;2022-07-29T01:48:37;6.85;;;6.25;;
37141;SDS011;23041;49.816;20.092;2022-07-29T01:51:10;7.78;;;7.05;;
37141;SDS011;23041;49.816;20.092;2022-07-29T01:53:38;7.90;;;7.17;;
37141;SDS011;23041;49.816;20.092;2022-07-29T01:56:12;8.55;;;7.03;;
37141;SDS011;23041;49.816;20.092;2022-07-29T01:58:41;8.83;;;7.87;;
37141;SDS011;23041;49.816;20.092;2022-07-29T02:01:10;9.65;;;8.15;;
37141;SDS011;23041;49.816;20.092;2022-07-29T02:03:38;9.43;;;8.08;;
37141;SDS011;23041;49.816;20.092;2022-07-29T02:06:08;9.88;;;6.62;;
37141;SDS011;23041;49.816;20.092;2022-07-29T02:08:36;7.75;;;6.95;;
37141;SDS011;23041;49.816;20.092;2022-07-29T02:11:04;9.58;;;8.33;;
37141;SDS011;23041;49.816;20.092;2022-07-29T02:13:33;10.65;;;7.87;;
37141;SDS011;23041;49.816;20.092;2022-07-29T02:16:02;8.65;;;7.65;;
37141;SDS011;23041;49.816;20.092;2022-07-29T02:18:31;9.40;;;7.65;;
37141;SDS011;23041;49.816;20.092;2022-07-29T02:21:02;8.38;;;7.58;;
37141;SDS011;23041;49.816;20.092;2022-07-29T02:23:29;8.08;;;6.30;;
37141;SDS011;23041;49.816;20.092;2022-07-29T02:25:58;8.37;;;6.57;;
37141;SDS011;23041;49.816;20.092;2022-07-29T02:28:26;7.70;;;6.85;;
37141;SDS011;23041;49.816;20.092;2022-07-29T02:30:59;7.95;;;7.17;;
37141;SDS011;23041;49.816;20.092;2022-07-29T02:33:28;7.37;;;6.78;;
37141;SDS011;23041;49.816;20.092;2022-07-29T02:35:57;8.33;;;7.53;;
37141;SDS011;23041;49.816;20.092;2022-07-29T02:38:25;7.87;;;7.17;;
37141;SDS011;23041;49.816;20.092;2022-07-29T02:41:13;7.55;;;6.83;;
37141;SDS011;23041;49.816;20.092;2022-07-29T02:43:43;6.60;;;6.00;;
37141;SDS011;23041;49.816;20.092;2022-07-29T02:46:21;6.92;;;6.17;;
37141;SDS011;23041;49.816;20.092;2022-07-29T02:51:29;9.78;;;6.62;;
37141;SDS011;23041;49.816;20.092;2022-07-29T02:54:06;12.95;;;7.12;;
37141;SDS011;23041;49.816;20.092;2022-07-29T02:56:35;7.40;;;6.70;;
37141;SDS011;23041;49.816;20.092;2022-07-29T02:59:04;7.95;;;7.25;;
37141;SDS011;23041;49.816;20.092;2022-07-29T03:01:35;7.33;;;6.67;;
37141;SDS011;23041;49.816;20.092;2022-07-29T03:04:05;8.88;;;5.60;;
37141;SDS011;23041;49.816;20.092;2022-07-29T03:06:38;8.03;;;6.30;;
37141;SDS011;23041;49.816;20.092;2022-07-29T03:09:06;7.90;;;6.45;;
37141;SDS011;23041;49.816;20.092;2022-07-29T03:11:34;10.08;;;6.87;;
37141;SDS011;23041;49.816;20.092;2022-07-29T03:14:01;8.63;;;7.83;;
37141;SDS011;23041;49.816;20.092;2022-07-29T03:16:28;8.10;;;7.37;;
37141;SDS011;23041;49.816;20.092;2022-07-29T03:18:59;7.65;;;6.97;;
37141;SDS011;23041;49.816;20.092;2022-07-29T03:21:23;10.10;;;6.72;;
37141;SDS011;23041;49.816;20.092;2022-07-29T03:23:50;10.23;;;7.08;;
37141;SDS011;23041;49.816;20.092;2022-07-29T03:26:16;10.25;;;6.58;;
37141;SDS011;23041;49.816;20.092;2022-07-29T03:28:43;7.12;;;6.42;;
37141;SDS011;23041;49.816;20.092;2022-07-29T03:31:09;7.78;;;7.08;;
37141;SDS011;23041;49.816;20.092;2022-07-29T03:33:35;7.47;;;6.87;;
37141;SDS011;23041;49.816;20.092;2022-07-29T03:36:02;8.70;;;7.53;;
37141;SDS011;23041;49.816;20.092;2022-07-29T03:38:29;10.23;;;7.75;;
37141;SDS011;23041;49.816;20.092;2022-07-29T03:40:58;9.80;;;8.38;;
37141;SDS011;23041;49.816;20.092;2022-07-29T03:43:32;8.98;;;8.18;;
37141;SDS011;23041;49.816;20.092;2022-07-29T03:46:02;11.70;;;7.80;;
37141;SDS011;23041;49.816;20.092;2022-07-29T03:48:33;7.08;;;6.37;;
37141;SDS011;23041;49.816;20.092;2022-07-29T03:51:03;9.03;;;7.25;;
37141;SDS011;23041;49.816;20.092;2022-07-29T03:53:29;8.63;;;7.47;;
37141;SDS011;23041;49.816;20.092;2022-07-29T03:55:58;8.10;;;7.30;;
37141;SDS011;23041;49.816;20.092;2022-07-29T04:00:55;7.97;;;7.22;;
37141;SDS011;23041;49.816;20.092;2022-07-29T04:03:23;8.40;;;7.60;;
37141;SDS011;23041;49.816;20.092;2022-07-29T04:06:03;7.70;;;7.00;;
37141;SDS011;23041;49.816;20.092;2022-07-29T04:08:32;7.42;;;6.72;;
37141;SDS011;23041;49.816;20.092;2022-07-29T04:11:00;7.20;;;6.50;;
37141;SDS011;23041;49.816;20.092;2022-07-29T04:13:27;8.23;;;7.33;;
37141;SDS011;23041;49.816;20.092;2022-07-29T04:15:54;9.45;;;7.55;;
37141;SDS011;23041;49.816;20.092;2022-07-29T04:18:20;10.90;;;7.58;;
37141;SDS011;23041;49.816;20.092;2022-07-29T04:20:47;8.70;;;7.65;;
37141;SDS011;23041;49.816;20.092;2022-07-29T04:23:13;9.03;;;7.10;;
37141;SDS011;23041;49.816;20.092;2022-07-29T04:25:40;9.43;;;6.87;;
37141;SDS011;23041;49.816;20.092;2022-07-29T04:28:08;7.40;;;6.37;;
37141;SDS011;23041;49.816;20.092;2022-07-29T04:30:35;9.13;;;6.12;;
37141;SDS011;23041;49.816;20.092;2022-07-29T04:33:03;7.30;;;6.60;;
37141;SDS011;23041;49.816;20.092;2022-07-29T04:35:35;7.55;;;6.65;;
37141;SDS011;23041;49.816;20.092;2022-07-29T04:38:03;8.68;;;7.40;;
37141;SDS011;23041;49.816;20.092;2022-07-29T04:40:31;9.65;;;7.30;;
37141;SDS011;23041;49.816;20.092;2022-07-29T04:42:59;7.95;;;7.25;;
37141;SDS011;23041;49.816;20.092;2022-07-29T04:45:27;7.65;;;6.95;;
37141;SDS011;23041;49.816;20.092;2022-07-29T04:47:54;7.55;;;6.55;;
37141;SDS011;23041;49.816;20.092;2022-07-29T04:50:21;8.65;;;6.72;;
37141;SDS011;23041;49.816;20.092;2022-07-29T04:52:47;7.58;;;6.87;;
37141;SDS011;23041;49.816;20.092;2022-07-29T04:55:14;9.38;;;6.87;;
37141;SDS011;23041;49.816;20.092;2022-07-29T04:57:40;10.13;;;6.87;;
37141;SDS011;23041;49.816;20.092;2022-07-29T05:00:07;9.40;;;7.60;;
37141;SDS011;23041;49.816;20.092;2022-07-29T05:02:35;8.60;;;6.65;;
37141;SDS011;23041;49.816;20.092;2022-07-29T05:05:01;7.75;;;6.22;;
37141;SDS011;23041;49.816;20.092;2022-07-29T05:07:28;11.22;;;6.90;;
37141;SDS011;23041;49.816;20.092;2022-07-29T05:09:55;8.03;;;6.65;;
37141;SDS011;23041;49.816;20.092;2022-07-29T05:12:23;6.75;;;6.10;;
37141;SDS011;23041;49.816;20.092;2022-07-29T05:14:50;7.70;;;7.05;;
37141;SDS011;23041;49.816;20.092;2022-07-29T05:17:16;7.30;;;6.60;;
37141;SDS011;23041;49.816;20.092;2022-07-29T05:19:42;9.63;;;6.85;;
37141;SDS011;23041;49.816;20.092;2022-07-29T05:22:09;9.03;;;6.97;;
37141;SDS011;23041;49.816;20.092;2022-07-29T05:24:35;7.12;;;6.53;;
37141;SDS011;23041;49.816;20.092;2022-07-29T05:27:02;13.20;;;7.37;;
37141;SDS011;23041;49.816;20.092;2022-07-29T05:29:31;7.17;;;6.47;;
37141;SDS011;23041;49.816;20.092;2022-07-29T05:31:57;8.03;;;6.65;;
37141;SDS011;23041;49.816;20.092;2022-07-29T05:34:24;7.22;;;6.53;;
37141;SDS011;23041;49.816;20.092;2022-07-29T05:36:50;7.50;;;6.50;;
37141;SDS011;23041;49.816;20.092;2022-07-29T05:39:16;9.15;;;6.55;;
37141;SDS011;23041;49.816;20.092;2022-07-29T05:41:43;9.63;;;6.47;;
37141;SDS011;23041;49.816;20.092;2022-07-29T05:44:09;9.08;;;6.47;;
37141;SDS011;23041;49.816;20.092;2022-07-29T05:46:36;9.33;;;6.53;;
37141;SDS011;23041;49.816;20.092;2022-07-29T05:49:03;7.00;;;6.00;;
37141;SDS011;23041;49.816;20.092;2022-07-29T05:51:29;6.35;;;5.40;;
37141;SDS011;23041;49.816;20.092;2022-07-29T05:53:56;9.68;;;5.80;;
37141;SDS011;23041;49.816;20.092;2022-07-29T05:56:22;6.55;;;5.95;;
37141;SDS011;23041;49.816;20.092;2022-07-29T05:58:48;9.25;;;5.97;;
37141;SDS011;23041;49.816;20.092;2022-07-29T06:01:15;7.00;;;6.33;;
37141;SDS011;23041;49.816;20.092;2022-07-29T06:03:41;6.20;;;5.67;;
37141;SDS011;23041;49.816;20.092;2022-07-29T06:06:08;6.80;;;6.00;;
37141;SDS011;23041;49.816;20.092;2022-07-29T06:08:35;6.45;;;5.85;;
37141;SDS011;23041;49.816;20.092;2022-07-29T06:11:03;6.60;;;6.00;;
37141;SDS011;23041;49.816;20.092;2022-07-29T06:13:30;9.13;;;5.97;;
37141;SDS011;23041;49.816;20.092;2022-07-29T06:15:57;9.23;;;6.00;;
37141;SDS011;23041;49.816;20.092;2022-07-29T06:18:23;6.70;;;6.08;;
37141;SDS011;23041;49.816;20.092;2022-07-29T06:20:50;6.72;;;6.15;;
37141;SDS011;23041;49.816;20.092;2022-07-29T06:23:17;10.53;;;6.30;;
37141;SDS011;23041;49.816;20.092;2022-07-29T06:25:44;6.85;;;5.97;;
37141;SDS011;23041;49.816;20.092;2022-07-29T06:28:11;7.53;;;6.45;;
37141;SDS011;23041;49.816;20.092;2022-07-29T06:30:38;6.15;;;5.55;;
37141;SDS011;23041;49.816;20.092;2022-07-29T06:33:04;6.80;;;5.50;;
37141;SDS011;23041;49.816;20.092;2022-07-29T06:35:35;7.58;;;5.45;;
37141;SDS011;23041;49.816;20.092;2022-07-29T06:38:02;6.60;;;5.72;;
37141;SDS011;23041;49.816;20.092;2022-07-29T06:40:29;11.30;;;5.53;;
37141;SDS011;23041;49.816;20.092;2022-07-29T06:43:14;6.08;;;5.47;;
37141;SDS011;23041;49.816;20.092;2022-07-29T06:45:41;6.12;;;5.53;;
37141;SDS011;23041;49.816;20.092;2022-07-29T06:48:08;6.50;;;5.85;;
37141;SDS011;23041;49.816;20.092;2022-07-29T06:50:35;5.60;;;5.10;;
37141;SDS011;23041;49.816;20.092;2022-07-29T06:53:02;7.75;;;5.67;;
37141;SDS011;23041;49.816;20.092;2022-07-29T06:55:28;5.72;;;5.12;;
37141;SDS011;23041;49.816;20.092;2022-07-29T06:57:54;5.28;;;4.87;;
37141;SDS011;23041;49.816;20.092;2022-07-29T07:00:23;6.62;;;4.92;;
37141;SDS011;23041;49.816;20.092;2022-07-29T07:02:50;5.60;;;5.10;;
37141;SDS011;23041;49.816;20.092;2022-07-29T07:05:16;8.28;;;5.17;;
37141;SDS011;23041;49.816;20.092;2022-07-29T07:07:43;5.87;;;5.33;;
37141;SDS011;23041;49.816;20.092;2022-07-29T07:10:09;5.58;;;4.53;;
37141;SDS011;23041;49.816;20.092;2022-07-29T07:12:35;5.33;;;4.83;;
37141;SDS011;23041;49.816;20.092;2022-07-29T07:15:02;5.15;;;4.65;;
37141;SDS011;23041;49.816;20.092;2022-07-29T07:17:29;6.72;;;4.58;;
37141;SDS011;23041;49.816;20.092;2022-07-29T07:19:56;9.60;;;5.33;;
37141;SDS011;23041;49.816;20.092;2022-07-29T07:22:22;6.42;;;4.60;;
37141;SDS011;23041;49.816;20.092;2022-07-29T07:24:48;5.60;;;4.65;;
37141;SDS011;23041;49.816;20.092;2022-07-29T07:27:15;6.17;;;4.40;;
37141;SDS011;23041;49.816;20.092;2022-07-29T07:29:41;5.70;;;4.30;;
37141;SDS011;23041;49.816;20.092;2022-07-29T07:32:07;6.28;;;4.60;;
37141;SDS011;23041;49.816;20.092;2022-07-29T07:34:34;5.80;;;4.30;;
37141;SDS011;23041;49.816;20.092;2022-07-29T07:37:00;5.03;;;4.55;;
37141;SDS011;23041;49.816;20.092;2022-07-29T07:39:27;5.25;;;3.98;;
37141;SDS011;23041;49.816;20.092;2022-07-29T07:41:54;4.78;;;4.20;;
37141;SDS011;23041;49.816;20.092;2022-07-29T07:44:20;7.92;;;4.55;;
37141;SDS011;23041;49.816;20.092;2022-07-29T07:46:46;7.60;;;4.37;;
37141;SDS011;23041;49.816;20.092;2022-07-29T07:49:13;6.08;;;4.10;;
37141;SDS011;23041;49.816;20.092;2022-07-29T07:51:39;4.60;;;4.15;;
37141;SDS011;23041;49.816;20.092;2022-07-29T07:54:06;4.95;;;4.45;;
37141;SDS011;23041;49.816;20.092;2022-07-29T07:56:32;5.08;;;4.22;;
37141;SDS011;23041;49.816;20.092;2022-07-29T07:58:58;7.72;;;4.28;;
37141;SDS011;23041;49.816;20.092;2022-07-29T08:01:25;5.70;;;4.08;;
37141;SDS011;23041;49.816;20.092;2022-07-29T08:03:51;5.45;;;4.10;;
37141;SDS011;23041;49.816;20.092;2022-07-29T08:06:17;5.35;;;4.40;;
37141;SDS011;23041;49.816;20.092;2022-07-29T08:08:44;6.67;;;4.37;;
37141;SDS011;23041;49.816;20.092;2022-07-29T08:11:10;5.15;;;3.77;;
37141;SDS011;23041;49.816;20.092;2022-07-29T08:13:37;4.37;;;3.95;;
37141;SDS011;23041;49.816;20.092;2022-07-29T08:16:05;5.97;;;4.05;;
37141;SDS011;23041;49.816;20.092;2022-07-29T08:18:38;6.05;;;3.90;;
37141;SDS011;23041;49.816;20.092;2022-07-29T08:21:07;4.55;;;4.15;;
37141;SDS011;23041;49.816;20.092;2022-07-29T08:23:33;5.92;;;3.95;;
37141;SDS011;23041;49.816;20.092;2022-07-29T08:26:08;4.33;;;3.90;;
37141;SDS011;23041;49.816;20.092;2022-07-29T08:28:37;4.40;;;4.00;;
37141;SDS011;23041;49.816;20.092;2022-07-29T08:33:32;6.80;;;3.85;;
37141;SDS011;23041;49.816;20.092;2022-07-29T08:35:59;8.45;;;3.85;;
37141;SDS011;23041;49.816;20.092;2022-07-29T08:38:25;5.22;;;4.08;;
37141;SDS011;23041;49.816;20.092;2022-07-29T08:40:52;5.35;;;3.62;;
37141;SDS011;23041;49.816;20.092;2022-07-29T08:43:19;8.43;;;3.95;;
37141;SDS011;23041;49.816;20.092;2022-07-29T08:45:46;4.67;;;4.00;;
37141;SDS011;23041;49.816;20.092;2022-07-29T08:48:17;4.75;;;4.08;;
37141;SDS011;23041;49.816;20.092;2022-07-29T08:50:47;5.92;;;3.85;;
37141;SDS011;23041;49.816;20.092;2022-07-29T08:53:21;4.85;;;4.12;;
37141;SDS011;23041;49.816;20.092;2022-07-29T08:55:51;4.12;;;3.58;;
37141;SDS011;23041;49.816;20.092;2022-07-29T08:58:19;3.72;;;3.40;;
37141;SDS011;23041;49.816;20.092;2022-07-29T09:00:51;4.78;;;3.52;;
37141;SDS011;23041;49.816;20.092;2022-07-29T09:03:20;6.05;;;3.67;;
37141;SDS011;23041;49.816;20.092;2022-07-29T09:05:49;4.97;;;4.50;;
37141;SDS011;23041;49.816;20.092;2022-07-29T09:08:17;7.80;;;4.65;;
37141;SDS011;23041;49.816;20.092;2022-07-29T09:10:44;6.05;;;4.03;;
37141;SDS011;23041;49.816;20.092;2022-07-29T09:15:37;5.10;;;3.85;;
37141;SDS011;23041;49.816;20.092;2022-07-29T09:18:03;7.45;;;3.47;;
37141;SDS011;23041;49.816;20.092;2022-07-29T09:20:30;3.75;;;3.55;;
37141;SDS011;23041;49.816;20.092;2022-07-29T09:23:15;3.87;;;3.52;;
37141;SDS011;23041;49.816;20.092;2022-07-29T09:25:41;3.67;;;3.37;;
37141;SDS011;23041;49.816;20.092;2022-07-29T09:28:09;5.17;;;3.90;;
37141;SDS011;23041;49.816;20.092;2022-07-29T09:30:51;4.28;;;3.47;;
37141;SDS011;23041;49.816;20.092;2022-07-29T09:33:22;4.12;;;3.75;;
37141;SDS011;23041;49.816;20.092;2022-07-29T09:36:07;6.50;;;3.67;;
37141;SDS011;23041;49.816;20.092;2022-07-29T09:38:34;3.98;;;3.55;;
37141;SDS011;23041;49.816;20.092;2022-07-29T09:41:04;4.15;;;3.30;;
37141;SDS011;23041;49.816;20.092;2022-07-29T09:43:31;4.50;;;4.20;;
37141;SDS011;23041;49.816;20.092;2022-07-29T09:46:11;4.42;;;4.03;;
37141;SDS011;23041;49.816;20.092;2022-07-29T09:48:38;3.92;;;3.62;;
37141;SDS011;23041;49.816;20.092;2022-07-29T09:51:05;6.27;;;3.73;;
37141;SDS011;23041;49.816;20.092;2022-07-29T09:53:33;4.70;;;3.75;;
37141;SDS011;23041;49.816;20.092;2022-07-29T09:56:04;3.65;;;3.27;;
37141;SDS011;23041;49.816;20.092;2022-07-29T10:01:00;4.25;;;3.65;;
37141;SDS011;23041;49.816;20.092;2022-07-29T10:03:28;4.25;;;3.85;;
37141;SDS011;23041;49.816;20.092;2022-07-29T10:06:08;4.90;;;3.70;;
37141;SDS011;23041;49.816;20.092;2022-07-29T10:08:34;5.80;;;3.70;;
37141;SDS011;23041;49.816;20.092;2022-07-29T10:11:08;4.17;;;3.43;;
37141;SDS011;23041;49.816;20.092;2022-07-29T10:13:42;4.72;;;3.70;;
37141;SDS011;23041;49.816;20.092;2022-07-29T10:16:12;4.00;;;3.60;;
37141;SDS011;23041;49.816;20.092;2022-07-29T10:18:43;5.35;;;4.50;;
37141;SDS011;23041;49.816;20.092;2022-07-29T10:21:12;3.92;;;3.62;;
37141;SDS011;23041;49.816;20.092;2022-07-29T10:23:39;4.55;;;4.00;;
37141;SDS011;23041;49.816;20.092;2022-07-29T10:26:06;6.15;;;5.15;;
37141;SDS011;23041;49.816;20.092;2022-07-29T10:28:33;4.12;;;3.80;;
37141;SDS011;23041;49.816;20.092;2022-07-29T10:31:03;4.85;;;3.67;;
37141;SDS011;23041;49.816;20.092;2022-07-29T10:42:37;5.08;;;4.65;;
37141;SDS011;23041;49.816;20.092;2022-07-29T10:44:41;4.45;;;4.05;;
37141;SDS011;23041;49.816;20.092;2022-07-29T10:47:42;5.70;;;4.00;;
37141;SDS011;23041;49.816;20.092;2022-07-29T10:50:01;6.15;;;4.62;;
37141;SDS011;23041;49.816;20.092;2022-07-29T10:55:37;3.98;;;3.67;;
37141;SDS011;23041;49.816;20.092;2022-07-29T11:00:47;4.20;;;3.90;;
37141;SDS011;23041;49.816;20.092;2022-07-29T11:06:16;6.10;;;4.00;;
37141;SDS011;23041;49.816;20.092;2022-07-29T11:08:43;4.87;;;4.40;;
37141;SDS011;23041;49.816;20.092;2022-07-29T11:13:51;5.47;;;4.47;;
37141;SDS011;23041;49.816;20.092;2022-07-29T11:16:20;4.55;;;4.17;;
37141;SDS011;23041;49.816;20.092;2022-07-29T11:21:41;5.15;;;4.05;;
37141;SDS011;23041;49.816;20.092;2022-07-29T11:24:17;5.05;;;4.20;;
37141;SDS011;23041;49.816;20.092;2022-07-29T11:27:32;5.50;;;4.50;;
37141;SDS011;23041;49.816;20.092;2022-07-29T11:29:47;4.30;;;3.98;;
37141;SDS011;23041;49.816;20.092;2022-07-29T11:32:20;7.50;;;4.28;;
37141;SDS011;23041;49.816;20.092;2022-07-29T11:34:49;5.45;;;4.12;;
37141;SDS011;23041;49.816;20.092;2022-07-29T11:37:37;5.53;;;4.35;;
37141;SDS011;23041;49.816;20.092;2022-07-29T11:42:38;5.42;;;4.50;;
37141;SDS011;23041;49.816;20.092;2022-07-29T11:53:00;5.00;;;4.25;;
37141;SDS011;23041;49.816;20.092;2022-07-29T11:55:29;4.97;;;4.47;;
37141;SDS011;23041;49.816;20.092;2022-07-29T11:57:58;6.75;;;4.00;;
37141;SDS011;23041;49.816;20.092;2022-07-29T12:00:29;5.58;;;4.03;;
37141;SDS011;23041;49.816;20.092;2022-07-29T12:03:07;4.78;;;4.35;;
37141;SDS011;23041;49.816;20.092;2022-07-29T12:05:40;6.53;;;4.70;;
37141;SDS011;23041;49.816;20.092;2022-07-29T12:08:12;6.03;;;3.95;;
37141;SDS011;23041;49.816;20.092;2022-07-29T12:10:45;6.22;;;4.25;;
37141;SDS011;23041;49.816;20.092;2022-07-29T12:13:14;4.42;;;4.05;;
37141;SDS011;23041;49.816;20.092;2022-07-29T12:15:50;4.22;;;3.92;;
37141;SDS011;23041;49.816;20.092;2022-07-29T12:18:22;3.83;;;3.55;;
37141;SDS011;23041;49.816;20.092;2022-07-29T12:20:57;8.60;;;4.27;;
37141;SDS011;23041;49.816;20.092;2022-07-29T12:23:27;5.25;;;4.75;;
37141;SDS011;23041;49.816;20.092;2022-07-29T12:25:54;5.00;;;4.45;;
37141;SDS011;23041;49.816;20.092;2022-07-29T12:28:21;9.10;;;4.50;;
37141;SDS011;23041;49.816;20.092;2022-07-29T12:30:48;5.75;;;3.90;;
37141;SDS011;23041;49.816;20.092;2022-07-29T12:33:22;4.50;;;3.90;;
37141;SDS011;23041;49.816;20.092;2022-07-29T12:35:58;4.65;;;4.15;;
37141;SDS011;23041;49.816;20.092;2022-07-29T12:38:27;5.05;;;4.75;;
37141;SDS011;23041;49.816;20.092;2022-07-29T12:40:54;9.00;;;4.35;;
37141;SDS011;23041;49.816;20.092;2022-07-29T12:43:21;4.70;;;4.30;;
37141;SDS011;23041;49.816;20.092;2022-07-29T12:45:53;5.62;;;4.45;;
37141;SDS011;23041;49.816;20.092;2022-07-29T12:51:05;8.08;;;3.80;;
37141;SDS011;23041;49.816;20.092;2022-07-29T12:53:34;4.78;;;4.28;;
37141;SDS011;23041;49.816;20.092;2022-07-29T12:56:04;5.28;;;4.37;;
37141;SDS011;23041;49.816;20.092;2022-07-29T12:58:42;4.80;;;3.67;;
37141;SDS011;23041;49.816;20.092;2022-07-29T13:01:08;6.15;;;4.17;;
37141;SDS011;23041;49.816;20.092;2022-07-29T13:03:48;4.37;;;3.62;;
37141;SDS011;23041;49.816;20.092;2022-07-29T13:09:16;4.40;;;4.08;;
37141;SDS011;23041;49.816;20.092;2022-07-29T13:11:48;4.58;;;4.08;;
37141;SDS011;23041;49.816;20.092;2022-07-29T13:14:33;6.03;;;3.90;;
37141;SDS011;23041;49.816;20.092;2022-07-29T13:17:06;5.20;;;4.40;;
37141;SDS011;23041;49.816;20.092;2022-07-29T13:19:48;4.17;;;3.80;;
37141;SDS011;23041;49.816;20.092;2022-07-29T13:22:17;4.62;;;4.22;;
37141;SDS011;23041;49.816;20.092;2022-07-29T13:24:56;5.28;;;3.98;;
37141;SDS011;23041;49.816;20.092;2022-07-29T13:27:28;4.47;;;4.08;;
37141;SDS011;23041;49.816;20.092;2022-07-29T13:29:58;7.20;;;3.98;;
37141;SDS011;23041;49.816;20.092;2022-07-29T13:32:26;4.47;;;4.10;;
37141;SDS011;23041;49.816;20.092;2022-07-29T13:34:56;4.42;;;4.03;;
37141;SDS011;23041;49.816;20.092;2022-07-29T13:37:24;6.67;;;3.45;;
37141;SDS011;23041;49.816;20.092;2022-07-29T13:39:53;6.28;;;4.28;;
37141;SDS011;23041;49.816;20.092;2022-07-29T13:42:21;5.90;;;3.55;;
37141;SDS011;23041;49.816;20.092;2022-07-29T13:44:49;5.37;;;3.80;;
37141;SDS011;23041;49.816;20.092;2022-07-29T13:47:20;3.72;;;3.42;;
37141;SDS011;23041;49.816;20.092;2022-07-29T13:49:47;4.53;;;3.45;;
37141;SDS011;23041;49.816;20.092;2022-07-29T13:52:14;6.67;;;3.72;;
37141;SDS011;23041;49.816;20.092;2022-07-29T13:54:41;4.85;;;3.72;;
37141;SDS011;23041;49.816;20.092;2022-07-29T13:57:09;5.85;;;4.00;;
37141;SDS011;23041;49.816;20.092;2022-07-29T13:59:36;4.17;;;3.87;;
37141;SDS011;23041;49.816;20.092;2022-07-29T14:02:03;4.00;;;3.70;;
37141;SDS011;23041;49.816;20.092;2022-07-29T14:04:31;4.80;;;4.08;;
37141;SDS011;23041;49.816;20.092;2022-07-29T14:06:58;6.15;;;4.05;;
37141;SDS011;23041;49.816;20.092;2022-07-29T14:09:25;5.12;;;4.20;;
37141;SDS011;23041;49.816;20.092;2022-07-29T14:11:51;4.75;;;4.35;;
37141;SDS011;23041;49.816;20.092;2022-07-29T14:14:18;5.45;;;4.95;;
37141;SDS011;23041;49.816;20.092;2022-07-29T14:16:45;7.60;;;4.12;;
37141;SDS011;23041;49.816;20.092;2022-07-29T14:19:12;6.30;;;4.40;;
37141;SDS011;23041;49.816;20.092;2022-07-29T14:21:38;5.20;;;4.28;;
37141;SDS011;23041;49.816;20.092;2022-07-29T14:24:05;4.30;;;4.00;;
37141;SDS011;23041;49.816;20.092;2022-07-29T14:26:32;5.97;;;4.53;;
37141;SDS011;23041;49.816;20.092;2022-07-29T14:28:58;4.55;;;4.17;;
37141;SDS011;23041;49.816;20.092;2022-07-29T14:31:25;4.85;;;4.35;;
37141;SDS011;23041;49.816;20.092;2022-07-29T14:33:51;5.40;;;4.95;;
37141;SDS011;23041;49.816;20.092;2022-07-29T14:36:17;5.65;;;4.47;;
37141;SDS011;23041;49.816;20.092;2022-07-29T14:38:43;8.28;;;6.25;;
37141;SDS011;23041;49.816;20.092;2022-07-29T14:41:10;7.72;;;6.95;;
37141;SDS011;23041;49.816;20.092;2022-07-29T14:43:36;7.45;;;6.83;;
37141;SDS011;23041;49.816;20.092;2022-07-29T14:46:03;7.10;;;6.50;;
37141;SDS011;23041;49.816;20.092;2022-07-29T14:48:29;9.33;;;6.35;;
37141;SDS011;23041;49.816;20.092;2022-07-29T14:50:56;8.70;;;5.53;;
37141;SDS011;23041;49.816;20.092;2022-07-29T14:53:22;9.10;;;5.47;;
37141;SDS011;23041;49.816;20.092;2022-07-29T14:55:48;6.92;;;6.00;;
37141;SDS011;23041;49.816;20.092;2022-07-29T14:58:15;6.72;;;6.05;;
37141;SDS011;23041;49.816;20.092;2022-07-29T15:00:42;7.53;;;6.92;;
37141;SDS011;23041;49.816;20.092;2022-07-29T15:03:08;6.92;;;6.33;;
37141;SDS011;23041;49.816;20.092;2022-07-29T15:05:35;6.33;;;5.78;;
37141;SDS011;23041;49.816;20.092;2022-07-29T15:08:02;9.18;;;6.15;;
37141;SDS011;23041;49.816;20.092;2022-07-29T15:10:29;8.33;;;7.40;;
37141;SDS011;23041;49.816;20.092;2022-07-29T15:12:56;8.95;;;6.10;;
37141;SDS011;23041;49.816;20.092;2022-07-29T15:15:22;6.00;;;5.50;;
37141;SDS011;23041;49.816;20.092;2022-07-29T15:17:48;8.25;;;5.97;;
37141;SDS011;23041;49.816;20.092;2022-07-29T15:20:15;5.97;;;5.05;;
37141;SDS011;23041;49.816;20.092;2022-07-29T15:22:41;7.90;;;5.53;;
37141;SDS011;23041;49.816;20.092;2022-07-29T15:25:09;6.65;;;4.58;;
37141;SDS011;23041;49.816;20.092;2022-07-29T15:27:35;7.53;;;4.62;;
37141;SDS011;23041;49.816;20.092;2022-07-29T15:30:02;7.67;;;5.05;;
37141;SDS011;23041;49.816;20.092;2022-07-29T15:32:29;5.33;;;4.70;;
37141;SDS011;23041;49.816;20.092;2022-07-29T15:34:55;8.08;;;5.42;;
37141;SDS011;23041;49.816;20.092;2022-07-29T15:37:22;6.35;;;5.08;;
37141;SDS011;23041;49.816;20.092;2022-07-29T15:39:48;8.63;;;5.42;;
37141;SDS011;23041;49.816;20.092;2022-07-29T15:42:15;9.20;;;5.17;;
37141;SDS011;23041;49.816;20.092;2022-07-29T15:44:41;5.92;;;5.30;;
37141;SDS011;23041;49.816;20.092;2022-07-29T15:47:07;9.15;;;7.12;;
37141;SDS011;23041;49.816;20.092;2022-07-29T15:49:39;11.57;;;4.80;;
37141;SDS011;23041;49.816;20.092;2022-07-29T15:52:06;7.67;;;3.35;;